Milverton, Canada
Current Conditions -  °F | °C
As of 8:00 AM on Thursday 23 Oct 2014 (Local Time) from CYKF Reporting Station
Clear Clear  
Wind Chill: 32°   Ceiling: Unl
Heat Index: 36°   Visibility: 9mi
Dew Point: 34°   Wind: 5mph
Humidity: 93%   Direction: 290°WNW
Pressure: 30.18"   Gusts: NA
Location:  43.57°N, 80.93°W
Report Text: CYKF 231200Z AUTO 29004KT 9SM CLR 02/01 A3018 RMK SLP230
Loading
Personal Weather Stations






























Interactive Weather Map
Tropical Storm Tracking
New forecast layout! Learn more

10-Day Weather Forecast

Advertisements
Track Severe Weather on mobile